createdAt,value
2023-06-11T00:00:23.845Z,14.69
2023-06-11T00:03:13.316Z,14.63
2023-06-11T00:05:42.857Z,14.58
2023-06-11T00:08:11.847Z,14.52
2023-06-11T00:10:42.721Z,14.49
2023-06-11T00:13:11.802Z,14.45
2023-06-11T00:15:40.873Z,14.38
2023-06-11T00:18:09.995Z,14.34
2023-06-11T00:20:41.917Z,14.28
2023-06-11T00:23:11.120Z,14.21
2023-06-11T00:25:41.730Z,14.17
2023-06-11T00:28:10.972Z,14.11
2023-06-11T00:30:40.140Z,14.05
2023-06-11T00:33:09.479Z,14.00
2023-06-11T00:35:38.823Z,13.94
2023-06-11T00:38:08.776Z,13.87
2023-06-11T00:40:38.437Z,13.81
2023-06-11T00:43:09.707Z,13.75
2023-06-11T00:45:39.389Z,13.70
2023-06-11T00:48:08.658Z,13.64
2023-06-11T00:50:46.256Z,13.57
2023-06-11T00:53:15.696Z,13.52
2023-06-11T00:55:45.497Z,13.45
2023-06-11T00:58:18.931Z,13.36
2023-06-11T01:00:50.758Z,13.30
2023-06-11T01:03:28.195Z,13.22
2023-06-11T01:06:03.715Z,13.16
2023-06-11T01:08:40.328Z,13.10
2023-06-11T01:11:15.129Z,13.02
2023-06-11T01:13:48.839Z,12.97
2023-06-11T01:16:35.436Z,12.88
2023-06-11T01:19:13.589Z,12.81
2023-06-11T01:21:48.580Z,12.76
2023-06-11T01:24:25.541Z,12.67
2023-06-11T01:27:09.551Z,12.60
2023-06-11T01:29:46.882Z,12.50
2023-06-11T01:32:19.876Z,12.41
2023-06-11T01:34:49.162Z,12.35
2023-06-11T01:37:22.469Z,12.26
2023-06-11T01:39:53.860Z,12.19
2023-06-11T01:42:34.999Z,12.11
2023-06-11T01:45:07.310Z,12.03
2023-06-11T01:47:38.197Z,11.96
2023-06-11T01:50:09.988Z,11.89
2023-06-11T01:52:39.634Z,11.83
2023-06-11T01:55:10.010Z,11.76
2023-06-11T01:57:41.573Z,11.70
2023-06-11T02:00:13.579Z,11.65
2023-06-11T02:02:48.926Z,11.58
2023-06-11T02:05:20.499Z,11.53
2023-06-11T02:07:51.054Z,11.47
2023-06-11T02:10:20.319Z,11.41
2023-06-11T02:12:49.576Z,11.37
2023-06-11T02:15:21.456Z,11.35
2023-06-11T02:17:50.889Z,11.27
2023-06-11T02:20:20.175Z,11.21
2023-06-11T02:22:49.422Z,11.16
2023-06-11T02:25:18.473Z,11.11
2023-06-11T02:27:48.960Z,11.07
2023-06-11T02:34:06.631Z,10.95
2023-06-11T02:36:36.326Z,10.93
2023-06-11T02:39:06.319Z,10.88
2023-06-11T02:41:36.378Z,10.86
2023-06-11T02:44:06.571Z,10.86
2023-06-11T02:46:36.036Z,10.83
2023-06-11T02:49:07.706Z,10.82
2023-06-11T02:51:37.150Z,10.83
2023-06-11T02:54:08.072Z,10.80
2023-06-11T02:56:37.734Z,10.83
2023-06-11T02:59:07.654Z,10.84
2023-06-11T03:01:36.970Z,10.86
2023-06-11T03:04:08.079Z,10.87
2023-06-11T03:06:37.629Z,10.89
2023-06-11T03:09:07.873Z,10.93
2023-06-11T03:11:37.940Z,10.97
2023-06-11T03:14:07.288Z,11.02
2023-06-11T03:16:36.793Z,11.06
2023-06-11T03:19:07.619Z,11.10
2023-06-11T03:21:37.149Z,11.22
2023-06-11T03:24:07.538Z,11.42
2023-06-11T03:26:36.967Z,11.66
2023-06-11T03:29:06.150Z,11.87
2023-06-11T03:31:45.092Z,12.04
2023-06-11T03:34:16.128Z,12.21
2023-06-11T03:36:46.054Z,12.40
2023-06-11T03:39:19.263Z,12.59
2023-06-11T03:41:51.541Z,12.77
2023-06-11T03:44:22.858Z,12.96
2023-06-11T03:46:52.200Z,13.13
2023-06-11T03:49:23.096Z,13.29
2023-06-11T03:51:52.389Z,13.44
2023-06-11T03:54:21.820Z,13.60
2023-06-11T03:56:52.528Z,13.75
2023-06-11T03:59:21.919Z,13.90
2023-06-11T04:01:51.081Z,14.05
2023-06-11T04:04:22.057Z,14.18
2023-06-11T04:06:51.434Z,14.32
2023-06-11T04:09:21.361Z,14.43
2023-06-11T04:11:50.521Z,14.56
2023-06-11T04:14:20.503Z,14.69
2023-06-11T04:16:49.705Z,14.78
2023-06-11T04:19:19.493Z,14.89
2023-06-11T04:21:51.178Z,15.01
2023-06-11T04:24:20.703Z,15.12
2023-06-11T04:26:50.276Z,15.20
2023-06-11T04:29:20.473Z,15.27
2023-06-11T04:31:53.697Z,15.37
2023-06-11T04:34:30.115Z,15.49
2023-06-11T04:37:02.905Z,15.54
2023-06-11T04:39:32.986Z,15.63
2023-06-11T04:42:04.395Z,15.72
2023-06-11T04:44:34.517Z,15.80
2023-06-11T04:47:06.627Z,15.83
2023-06-11T04:49:38.940Z,15.86
2023-06-11T04:52:10.161Z,15.94
2023-06-11T04:54:42.701Z,16.03
2023-06-11T04:57:12.320Z,16.07
2023-06-11T04:59:41.654Z,16.09
2023-06-11T05:02:10.879Z,16.16
2023-06-11T05:04:41.016Z,16.25
2023-06-11T05:07:11.927Z,16.28
2023-06-11T05:09:45.823Z,16.32
2023-06-11T05:12:15.878Z,16.38
2023-06-11T05:14:46.547Z,16.43
2023-06-11T05:17:17.142Z,16.47
2023-06-11T05:19:49.001Z,16.50
2023-06-11T05:22:20.853Z,16.55
2023-06-11T05:24:50.332Z,16.60
2023-06-11T05:27:19.892Z,16.64
2023-06-11T05:29:49.367Z,16.69
2023-06-11T05:32:19.210Z,16.75
2023-06-11T05:34:50.960Z,16.78
2023-06-11T05:37:23.558Z,16.85
2023-06-11T05:39:52.953Z,16.94
2023-06-11T05:42:23.936Z,17.02
2023-06-11T05:44:53.687Z,17.08
2023-06-11T05:47:23.297Z,17.14
2023-06-11T05:49:53.839Z,17.20
2023-06-11T05:52:24.574Z,17.29
2023-06-11T05:54:54.826Z,17.36
2023-06-11T05:57:24.301Z,17.43
2023-06-11T05:59:55.026Z,17.49
2023-06-11T06:02:25.486Z,17.60
2023-06-11T06:04:56.094Z,17.67
2023-06-11T06:07:27.169Z,17.72
2023-06-11T06:09:57.504Z,17.81
2023-06-11T06:12:26.644Z,17.86
2023-06-11T06:14:56.124Z,17.91
2023-06-11T06:17:25.874Z,18.00
2023-06-11T06:19:55.413Z,18.08
2023-06-11T06:22:26.811Z,18.18
2023-06-11T06:24:59.360Z,18.27
2023-06-11T06:27:32.708Z,18.39
2023-06-11T06:30:02.748Z,18.48
2023-06-11T06:32:33.725Z,18.53
2023-06-11T06:35:03.514Z,18.61
2023-06-11T06:37:34.047Z,18.70
2023-06-11T06:40:03.612Z,18.77
2023-06-11T06:42:32.895Z,18.87
2023-06-11T06:45:05.945Z,18.89
2023-06-11T06:47:35.533Z,18.98
2023-06-11T06:50:06.214Z,19.04
2023-06-11T06:52:36.932Z,19.07
2023-06-11T06:55:07.344Z,19.15
2023-06-11T06:57:36.591Z,19.25
2023-06-11T07:00:06.978Z,19.32
2023-06-11T07:02:36.676Z,19.38
2023-06-11T07:05:07.254Z,19.47
2023-06-11T07:07:40.935Z,19.55
2023-06-11T07:10:13.704Z,19.62
2023-06-11T07:12:43.344Z,19.66
2023-06-11T07:15:13.575Z,19.74
2023-06-11T07:17:42.800Z,19.79
2023-06-11T07:20:14.111Z,19.86
2023-06-11T07:22:45.434Z,19.93
2023-06-11T07:25:16.788Z,20.00
2023-06-11T07:27:45.989Z,20.08
2023-06-11T07:30:16.152Z,20.12
2023-06-11T07:32:45.459Z,20.16
2023-06-11T07:35:16.136Z,20.25
2023-06-11T07:37:47.231Z,20.31
2023-06-11T07:40:18.278Z,20.33
2023-06-11T07:42:49.111Z,20.36
2023-06-11T07:45:22.726Z,20.47
2023-06-11T07:47:53.842Z,20.57
2023-06-11T07:50:23.939Z,20.58
2023-06-11T07:52:54.486Z,20.62
2023-06-11T07:55:26.957Z,20.67
2023-06-11T07:57:56.097Z,20.70
2023-06-11T08:00:25.562Z,20.74
2023-06-11T08:02:55.998Z,20.76
2023-06-11T08:05:25.427Z,20.77
2023-06-11T08:07:55.956Z,20.84
2023-06-11T08:10:25.753Z,20.88
2023-06-11T08:12:54.927Z,20.90
2023-06-11T08:15:24.332Z,20.96
2023-06-11T08:17:53.622Z,21.00
2023-06-11T08:20:23.547Z,21.07
2023-06-11T08:22:54.159Z,21.10
2023-06-11T08:25:23.813Z,21.12
2023-06-11T08:27:53.170Z,21.16
2023-06-11T08:30:22.852Z,21.16
2023-06-11T08:32:53.012Z,21.18
2023-06-11T08:35:23.973Z,21.23
2023-06-11T08:37:54.556Z,21.24
2023-06-11T08:40:24.626Z,21.28
2023-06-11T08:42:53.901Z,21.27
2023-06-11T08:45:23.302Z,21.30
2023-06-11T08:47:52.795Z,21.36
2023-06-11T08:50:23.171Z,21.30
2023-06-11T08:52:54.589Z,21.39
2023-06-11T08:55:24.202Z,21.40
2023-06-11T08:57:53.423Z,21.39
2023-06-11T09:00:23.393Z,21.39
2023-06-11T09:02:53.133Z,21.45
2023-06-11T09:05:23.732Z,21.44
2023-06-11T09:07:54.886Z,21.54
2023-06-11T09:10:24.372Z,21.56
2023-06-11T09:12:56.033Z,21.61
2023-06-11T09:15:28.312Z,21.66
2023-06-11T09:17:57.720Z,21.61
2023-06-11T09:20:28.573Z,21.65
2023-06-11T09:22:59.076Z,21.73
2023-06-11T09:25:35.024Z,21.67
2023-06-11T09:28:08.511Z,21.71
2023-06-11T09:30:38.178Z,21.75
2023-06-11T09:33:18.353Z,21.74
2023-06-11T09:35:48.381Z,21.78
2023-06-11T09:38:19.480Z,21.84
2023-06-11T09:40:49.530Z,21.87
2023-06-11T09:43:22.478Z,21.87
2023-06-11T09:45:54.382Z,21.86
2023-06-11T09:48:24.353Z,21.87
2023-06-11T09:50:54.811Z,21.90
2023-06-11T09:53:26.062Z,21.89
2023-06-11T09:56:09.593Z,21.87
2023-06-11T09:58:42.081Z,21.92
2023-06-11T10:01:12.850Z,21.94
2023-06-11T10:03:42.329Z,21.94
2023-06-11T10:06:17.786Z,21.99
2023-06-11T10:08:51.936Z,22.00
2023-06-11T10:11:24.817Z,22.02
2023-06-11T10:14:00.412Z,22.06
2023-06-11T10:16:30.599Z,22.09
2023-06-11T10:19:10.378Z,22.14
2023-06-11T10:21:45.656Z,22.11
2023-06-11T10:24:24.852Z,22.16
2023-06-11T10:27:08.527Z,22.15
2023-06-11T10:29:42.313Z,22.13
2023-06-11T10:32:19.004Z,22.22
2023-06-11T10:34:50.218Z,22.34
2023-06-11T10:37:34.850Z,22.38
2023-06-11T10:40:07.213Z,22.39
2023-06-11T10:42:39.572Z,22.42
2023-06-11T10:45:10.490Z,22.47
2023-06-11T10:47:44.842Z,22.52
2023-06-11T10:50:18.022Z,22.58
2023-06-11T10:52:56.789Z,22.65
2023-06-11T10:55:30.651Z,22.74
2023-06-11T10:58:01.891Z,22.69
2023-06-11T11:00:34.238Z,22.75
2023-06-11T11:03:06.025Z,22.81
2023-06-11T11:05:35.294Z,22.79
2023-06-11T11:08:05.053Z,22.87
2023-06-11T11:10:35.688Z,22.84
2023-06-11T11:13:05.549Z,22.82
2023-06-11T11:15:34.748Z,22.91
2023-06-11T11:18:04.741Z,22.95
2023-06-11T11:20:34.755Z,22.99
2023-06-11T11:23:05.461Z,23.05
2023-06-11T11:25:35.936Z,23.09
2023-06-11T11:28:07.110Z,23.16
2023-06-11T11:30:36.326Z,23.17
2023-06-11T11:33:05.831Z,23.20
2023-06-11T11:35:35.128Z,23.23
2023-06-11T11:38:05.873Z,23.28
2023-06-11T11:40:39.892Z,23.40
2023-06-11T11:43:14.033Z,23.47
2023-06-11T11:45:48.782Z,23.49
2023-06-11T11:48:18.555Z,23.51
2023-06-11T11:50:51.877Z,23.58
2023-06-11T11:53:22.931Z,23.71
2023-06-11T11:56:05.286Z,23.70
2023-06-11T11:58:41.048Z,23.74
2023-06-11T12:01:23.038Z,23.81
2023-06-11T12:04:00.152Z,23.83
2023-06-11T12:06:31.406Z,23.87
2023-06-11T12:09:01.180Z,23.86
2023-06-11T12:11:31.926Z,23.94
2023-06-11T12:14:01.334Z,23.94
2023-06-11T12:16:30.601Z,23.94
2023-06-11T12:19:10.290Z,23.94
2023-06-11T12:21:49.909Z,23.91
2023-06-11T12:24:19.789Z,23.93
2023-06-11T12:26:53.122Z,23.99
2023-06-11T12:29:22.710Z,24.04
2023-06-11T12:31:51.902Z,24.05
2023-06-11T12:34:21.327Z,24.01
2023-06-11T12:36:53.184Z,24.10
2023-06-11T12:39:23.140Z,24.12
2023-06-11T12:41:53.975Z,24.18
2023-06-11T12:44:23.361Z,24.22
2023-06-11T12:46:52.401Z,24.22
2023-06-11T12:49:23.502Z,24.18
2023-06-11T12:51:53.044Z,24.21
2023-06-11T12:54:25.682Z,24.24
2023-06-11T12:56:56.260Z,24.23
2023-06-11T12:59:26.098Z,24.17
2023-06-11T13:01:55.366Z,24.23
2023-06-11T13:04:27.389Z,24.22
2023-06-11T13:07:01.846Z,24.22
2023-06-11T13:09:35.705Z,24.12
2023-06-11T13:12:07.254Z,24.16
2023-06-11T13:14:36.874Z,24.14
2023-06-11T13:17:08.043Z,24.20
2023-06-11T13:19:37.572Z,24.27
2023-06-11T13:22:08.243Z,24.21
2023-06-11T13:24:37.741Z,24.21
2023-06-11T13:27:09.198Z,24.09
2023-06-11T13:29:38.713Z,24.14
2023-06-11T13:32:08.899Z,24.19
2023-06-11T13:34:39.125Z,24.17
2023-06-11T13:37:08.623Z,24.26
2023-06-11T13:39:38.078Z,24.36
2023-06-11T13:42:09.400Z,24.51
2023-06-11T13:44:39.130Z,24.72
2023-06-11T13:47:09.497Z,24.97
2023-06-11T13:49:39.199Z,25.22
2023-06-11T13:52:09.089Z,25.48
2023-06-11T13:54:38.562Z,25.74
2023-06-11T13:57:09.710Z,26.15
2023-06-11T13:59:39.445Z,26.53
2023-06-11T14:02:09.147Z,26.99
2023-06-11T14:04:38.597Z,27.50
2023-06-11T14:07:07.684Z,28.02
2023-06-11T14:09:37.297Z,28.57
2023-06-11T14:12:09.205Z,28.93
2023-06-11T14:14:38.642Z,29.19
2023-06-11T14:17:09.175Z,29.80
2023-06-11T14:19:38.641Z,30.17
2023-06-11T14:22:08.114Z,30.49
2023-06-11T14:24:37.500Z,30.80
2023-06-11T14:27:10.041Z,31.49
2023-06-11T14:29:39.823Z,31.68
2023-06-11T14:32:10.203Z,31.94
2023-06-11T14:34:42.276Z,32.20
2023-06-11T14:37:12.468Z,32.59
2023-06-11T14:39:43.079Z,32.65
2023-06-11T14:42:13.945Z,32.72
2023-06-11T14:44:43.445Z,33.00
2023-06-11T14:47:12.637Z,33.25
2023-06-11T14:49:42.491Z,33.58
2023-06-11T14:52:16.126Z,33.91
2023-06-11T14:54:50.481Z,34.42
2023-06-11T14:57:32.321Z,34.44
2023-06-11T15:00:09.346Z,34.48
2023-06-11T15:02:38.659Z,34.69
2023-06-11T15:05:09.227Z,34.83
2023-06-11T15:07:38.989Z,34.85
2023-06-11T15:10:12.124Z,34.84
2023-06-11T15:12:42.992Z,34.85
2023-06-11T15:15:13.214Z,34.97
2023-06-11T15:17:42.425Z,35.30
2023-06-11T15:20:13.087Z,35.38
2023-06-11T15:22:43.253Z,35.38
2023-06-11T15:25:13.029Z,35.78
2023-06-11T15:27:43.712Z,36.05
2023-06-11T15:30:13.654Z,36.00
2023-06-11T15:32:43.208Z,36.02
2023-06-11T15:35:13.275Z,35.97
2023-06-11T15:37:42.424Z,36.11
2023-06-11T15:40:12.841Z,36.01
2023-06-11T15:42:44.905Z,36.24
2023-06-11T15:45:14.720Z,36.37
2023-06-11T15:47:44.400Z,36.27
2023-06-11T15:50:14.332Z,36.62
2023-06-11T15:52:43.983Z,36.42
2023-06-11T15:55:14.208Z,36.53
2023-06-11T15:57:45.581Z,36.41
2023-06-11T16:00:15.920Z,36.58
2023-06-11T16:02:45.209Z,36.36
2023-06-11T16:05:14.881Z,36.45
2023-06-11T16:07:44.144Z,36.47
2023-06-11T16:10:14.977Z,36.77
2023-06-11T16:12:46.361Z,36.87
2023-06-11T16:15:16.337Z,37.19
2023-06-11T16:17:48.039Z,37.37
2023-06-11T16:20:17.763Z,37.21
2023-06-11T16:22:46.869Z,36.78
2023-06-11T16:25:16.380Z,37.06
2023-06-11T16:27:46.870Z,37.34
2023-06-11T16:30:16.678Z,37.52
2023-06-11T16:32:45.841Z,37.71
2023-06-11T16:35:17.827Z,37.27
2023-06-11T16:37:47.210Z,37.30
2023-06-11T16:40:16.870Z,37.56
2023-06-11T16:42:47.415Z,36.88
2023-06-11T16:45:17.101Z,37.03
2023-06-11T16:47:46.214Z,37.12
2023-06-11T16:50:15.817Z,36.61
2023-06-11T16:52:48.280Z,36.35
2023-06-11T16:55:21.251Z,35.66
2023-06-11T16:57:52.625Z,35.09
2023-06-11T17:00:23.192Z,34.73
2023-06-11T17:02:55.929Z,33.98
2023-06-11T17:05:25.772Z,33.44
2023-06-11T17:07:58.396Z,33.16
2023-06-11T17:10:30.836Z,32.42
2023-06-11T17:13:01.548Z,31.56
2023-06-11T17:15:31.257Z,31.15
2023-06-11T17:18:00.821Z,30.31
2023-06-11T17:20:31.777Z,29.95
2023-06-11T17:23:02.006Z,29.90
2023-06-11T17:25:31.535Z,29.32
2023-06-11T17:28:02.414Z,28.54
2023-06-11T17:30:32.062Z,28.37
2023-06-11T17:33:01.758Z,28.08
2023-06-11T17:35:31.619Z,27.65
2023-06-11T17:38:00.847Z,27.34
2023-06-11T17:40:30.278Z,27.21
2023-06-11T17:43:01.886Z,27.03
2023-06-11T17:45:31.693Z,26.45
2023-06-11T17:48:01.536Z,26.06
2023-06-11T17:50:31.393Z,25.89
2023-06-11T17:53:02.020Z,25.52
2023-06-11T17:55:32.858Z,25.29
2023-06-11T17:58:05.591Z,25.13
2023-06-11T18:00:36.725Z,24.83
2023-06-11T18:03:06.882Z,24.54
2023-06-11T18:05:37.059Z,24.46
2023-06-11T18:08:06.720Z,24.32
2023-06-11T18:10:36.269Z,24.02
2023-06-11T18:13:08.844Z,23.80
2023-06-11T18:15:42.655Z,23.63
2023-06-11T18:18:12.528Z,23.39
2023-06-11T18:20:42.243Z,23.34
2023-06-11T18:23:11.962Z,23.16
2023-06-11T18:25:42.904Z,23.09
2023-06-11T18:28:14.898Z,22.99
2023-06-11T18:30:46.713Z,22.76
2023-06-11T18:33:19.118Z,22.69
2023-06-11T18:35:51.238Z,22.26
2023-06-11T18:38:23.454Z,22.29
2023-06-11T18:40:58.770Z,22.28
2023-06-11T18:43:30.487Z,22.16
2023-06-11T18:46:01.786Z,22.12
2023-06-11T18:48:31.762Z,22.02
2023-06-11T18:51:02.771Z,21.87
2023-06-11T18:53:32.031Z,21.72
2023-06-11T18:56:01.867Z,21.69
2023-06-11T18:58:34.067Z,21.59
2023-06-11T19:01:05.492Z,21.54
2023-06-11T19:03:40.556Z,21.37
2023-06-11T19:06:11.933Z,21.20
2023-06-11T19:08:45.356Z,21.11
2023-06-11T19:11:19.876Z,20.91
2023-06-11T19:13:54.440Z,20.90
2023-06-11T19:16:26.785Z,20.82
2023-06-11T19:18:57.623Z,20.72
2023-06-11T19:21:31.335Z,20.61
2023-06-11T19:24:01.957Z,20.46
2023-06-11T19:26:35.261Z,20.36
2023-06-11T19:29:06.328Z,20.28
2023-06-11T19:31:35.728Z,20.23
2023-06-11T19:34:05.540Z,20.10
2023-06-11T19:36:35.171Z,20.00
2023-06-11T19:39:04.846Z,19.91
2023-06-11T19:41:34.919Z,19.76
2023-06-11T19:44:05.698Z,19.64
2023-06-11T19:46:36.443Z,19.63
2023-06-11T19:49:07.057Z,19.50
2023-06-11T19:51:36.491Z,19.45
2023-06-11T19:54:06.219Z,19.36
2023-06-11T19:56:35.645Z,19.28
2023-06-11T19:59:05.824Z,19.19
2023-06-11T20:01:35.618Z,19.11
2023-06-11T20:04:05.996Z,19.03
2023-06-11T20:06:35.783Z,18.91
2023-06-11T20:09:05.129Z,18.79
2023-06-11T20:11:35.372Z,18.72
2023-06-11T20:14:05.970Z,18.66
2023-06-11T20:16:35.826Z,18.61
2023-06-11T20:19:05.169Z,18.47
2023-06-11T20:21:34.601Z,18.41
2023-06-11T20:24:03.479Z,18.40
2023-06-11T20:26:36.127Z,18.30
2023-06-11T20:29:06.871Z,18.19
2023-06-11T20:31:36.175Z,18.12
2023-06-11T20:34:05.131Z,18.11
2023-06-11T20:36:34.973Z,17.97
2023-06-11T20:39:04.547Z,18.00
2023-06-11T20:41:33.992Z,17.90
2023-06-11T20:44:02.848Z,17.82
2023-06-11T20:46:33.458Z,17.77
2023-06-11T20:49:02.812Z,17.61
2023-06-11T20:51:32.282Z,17.47
2023-06-11T20:54:01.401Z,17.44
2023-06-11T20:56:30.889Z,17.30
2023-06-11T20:59:00.042Z,17.16
2023-06-11T21:01:30.438Z,17.09
2023-06-11T21:04:01.110Z,17.01
2023-06-11T21:06:30.573Z,16.92
2023-06-11T21:08:59.604Z,16.84
2023-06-11T21:11:29.639Z,16.72
2023-06-11T21:14:12.727Z,16.63
2023-06-11T21:16:43.645Z,16.54
2023-06-11T21:19:14.435Z,16.43
2023-06-11T21:21:44.102Z,16.35
2023-06-11T21:24:13.494Z,16.19
2023-06-11T21:26:42.936Z,16.12
2023-06-11T21:29:12.144Z,16.06
2023-06-11T21:31:43.472Z,15.98
2023-06-11T21:34:14.097Z,15.76
2023-06-11T21:36:43.405Z,15.64
2023-06-11T21:39:12.549Z,15.54
2023-06-11T21:41:41.649Z,15.45
2023-06-11T21:44:10.750Z,15.36
2023-06-11T21:46:40.345Z,15.21
2023-06-11T21:49:09.494Z,15.13
2023-06-11T21:51:40.013Z,15.06
2023-06-11T21:54:09.289Z,14.99
2023-06-11T21:56:38.672Z,14.82
2023-06-11T21:59:07.761Z,14.75
2023-06-11T22:01:36.838Z,14.67
2023-06-11T22:04:06.458Z,14.56
2023-06-11T22:06:42.990Z,14.45
2023-06-11T22:09:13.849Z,14.37
2023-06-11T22:11:43.904Z,14.26
2023-06-11T22:14:13.180Z,14.19
2023-06-11T22:16:46.847Z,14.14
2023-06-11T22:19:16.498Z,14.04
2023-06-11T22:21:46.064Z,13.96
2023-06-11T22:24:16.906Z,13.89
2023-06-11T22:26:46.451Z,13.81
2023-06-11T22:29:15.424Z,13.71
2023-06-11T22:31:44.690Z,13.65
2023-06-11T22:34:13.823Z,13.59
2023-06-11T22:36:43.249Z,13.49
2023-06-11T22:39:12.323Z,13.46
2023-06-11T22:41:43.113Z,13.34
2023-06-11T22:44:12.178Z,13.25
2023-06-11T22:46:41.433Z,13.19
2023-06-11T22:49:12.582Z,13.16
2023-06-11T22:51:44.102Z,13.09
2023-06-11T22:54:13.732Z,12.99
2023-06-11T22:56:44.511Z,12.95
2023-06-11T22:59:16.136Z,12.86
2023-06-11T23:01:45.746Z,12.84
2023-06-11T23:04:14.898Z,12.78
2023-06-11T23:06:47.524Z,12.71
2023-06-11T23:09:17.032Z,12.65
2023-06-11T23:11:48.984Z,12.61
2023-06-11T23:14:18.203Z,12.54
2023-06-11T23:16:49.515Z,12.48
2023-06-11T23:19:23.729Z,12.42
2023-06-11T23:21:57.490Z,12.37
2023-06-11T23:24:28.221Z,12.32
2023-06-11T23:27:02.425Z,12.25
2023-06-11T23:29:33.722Z,12.21
2023-06-11T23:32:03.777Z,12.16
2023-06-11T23:34:34.484Z,12.09
2023-06-11T23:37:04.028Z,12.03
2023-06-11T23:39:33.081Z,11.97
2023-06-11T23:42:03.883Z,11.94
2023-06-11T23:44:32.935Z,11.88
2023-06-11T23:47:02.336Z,11.88
2023-06-11T23:49:31.408Z,11.77
2023-06-11T23:52:00.756Z,11.74
2023-06-11T23:54:29.826Z,11.70
2023-06-11T23:56:59.490Z,11.63
2023-06-11T23:59:29.892Z,11.61
